Time;durP1;ratioP1;P1;durP2;ratioP2;P2;SDS_P1;SDS_P2;PMS_P1;PMS_P2;Temp;Humidity;BMP_temperature;BMP_pressure;BME280_temperature;BME280_humidity;BME280_pressure;Samples;Min_cycle;Max_cycle;Signal;HPM_P1;HPM_P2
2023/08/23 00:01:07;;;;;;;;;;;16.80;99.90;;;;;;4595914;19;19922;-54
2023/08/23 00:02:42;;;;;;;;;;;16.70;99.90;;;;;;4595820;19;19918;-51
2023/08/23 00:04:15;;;;;;;;;;;16.70;99.90;;;;;;4595084;19;20287;-51
2023/08/23 00:05:51;;;;;;;;;;;16.70;99.90;;;;;;4595790;19;20209;-51
2023/08/23 00:07:24;;;;;;;;;;;16.80;99.90;;;;;;4595746;19;19948;-52
2023/08/23 00:08:58;;;;;;;;;;;16.80;99.90;;;;;;4594465;19;19915;-55
2023/08/23 00:10:33;;;;;;;;;;;16.70;99.90;;;;;;4595300;19;19943;-51
2023/08/23 00:12:07;;;;;;;;;;;16.70;99.90;;;;;;4595600;19;19915;-52
2023/08/23 00:13:40;;;;;;;;;;;16.70;99.90;;;;;;4595588;19;19940;-53
2023/08/23 00:15:15;;;;;;;;;;;16.70;99.90;;;;;;4595550;19;19938;-51
2023/08/23 00:16:48;;;;;;;;;;;16.70;99.90;;;;;;4595546;19;19918;-52
2023/08/23 00:18:21;;;;;;;;;;;16.70;99.90;;;;;;4595008;19;19919;-52
2023/08/23 00:19:56;;;;;;;;;;;16.70;99.90;;;;;;4595470;19;19922;-51
2023/08/23 00:21:29;;;;;;;;;;;16.70;99.90;;;;;;4595448;19;19922;-53
2023/08/23 00:23:02;;;;;;;;;;;16.70;99.90;;;;;;4595423;19;19914;-52
2023/08/23 00:24:38;;;;;;;;;;;16.70;99.90;;;;;;4594377;19;19919;-54
2023/08/23 00:26:13;;;;;;;;;;;16.70;99.90;;;;;;4595343;19;19922;-52
2023/08/23 00:27:48;;;;;;;;;;;16.70;99.90;;;;;;4595374;19;19921;-54
2023/08/23 00:29:23;;;;;;;;;;;16.60;99.90;;;;;;4595321;19;19921;-52
2023/08/23 00:30:56;;;;;;;;;;;16.60;99.90;;;;;;4595272;19;19919;-52
2023/08/23 00:32:30;;;;;;;;;;;16.60;99.90;;;;;;4595236;19;19925;-52
2023/08/23 00:34:05;;;;;;;;;;;16.60;99.90;;;;;;4594671;19;19918;-54
2023/08/23 00:35:38;;;;;;;;;;;16.60;99.90;;;;;;4595154;19;19918;-51
2023/08/23 00:37:11;;;;;;;;;;;16.60;99.90;;;;;;4595101;19;19925;-52
2023/08/23 00:38:46;;;;;;;;;;;16.60;99.90;;;;;;4594169;19;20300;-51
2023/08/23 00:40:20;;;;;;;;;;;16.60;99.90;;;;;;4595070;19;19915;-53
2023/08/23 00:41:53;;;;;;;;;;;16.60;99.90;;;;;;4594989;19;20324;-55
2023/08/23 00:43:28;;;;;;;;;;;16.60;99.90;;;;;;4595010;19;19919;-52
2023/08/23 00:45:02;;;;;;;;;;;16.60;99.90;;;;;;4593244;19;19919;-54
2023/08/23 00:46:35;;;;;;;;;;;16.60;99.90;;;;;;4594882;19;19970;-53
2023/08/23 00:48:12;;;;;;;;;;;16.60;99.90;;;;;;4594913;19;19979;-51
2023/08/23 00:49:46;;;;;;;;;;;16.50;99.90;;;;;;4594841;19;19911;-51
2023/08/23 00:51:20;;;;;;;;;;;16.50;99.90;;;;;;4593489;19;19915;-51
2023/08/23 00:52:54;;;;;;;;;;;16.50;99.90;;;;;;4594435;19;20002;-51
2023/08/23 00:54:28;;;;;;;;;;;16.50;99.90;;;;;;4593937;19;19926;-51
2023/08/23 00:56:01;;;;;;;;;;;16.50;99.90;;;;;;4593447;19;19978;-54
2023/08/23 00:57:36;;;;;;;;;;;16.50;99.90;;;;;;4594286;19;19919;-54
2023/08/23 00:59:09;;;;;;;;;;;16.50;99.90;;;;;;4593426;19;20307;-51
2023/08/23 01:00:42;;;;;;;;;;;16.50;99.90;;;;;;4594659;19;20295;-51
2023/08/23 01:02:16;;;;;;;;;;;16.50;99.90;;;;;;4594591;19;19914;-51
2023/08/23 01:03:50;;;;;;;;;;;16.50;99.90;;;;;;4594339;19;19919;-52
2023/08/23 01:05:38;;;;;;;;;;;16.40;99.90;;;;;;4594585;19;20139;-51
2023/08/23 01:07:18;;;;;;;;;;;16.50;99.90;;;;;;4594573;19;19926;-51
2023/08/23 01:09:09;;;;;;;;;;;16.40;99.90;;;;;;4592714;19;19997;-50
2023/08/23 01:10:47;;;;;;;;;;;16.40;99.90;;;;;;4593182;19;19922;-51
2023/08/23 01:12:40;;;;;;;;;;;16.40;99.90;;;;;;4593118;19;19907;-51
2023/08/23 01:14:21;;;;;;;;;;;16.40;99.90;;;;;;4593788;19;19915;-51
2023/08/23 01:15:54;;;;;;;;;;;16.40;99.90;;;;;;4594330;19;19955;-51
2023/08/23 01:17:29;;;;;;;;;;;16.30;99.90;;;;;;4594257;19;19915;-50
2023/08/23 01:19:04;;;;;;;;;;;16.30;99.90;;;;;;4593252;19;19982;-52
2023/08/23 01:20:37;;;;;;;;;;;16.30;99.90;;;;;;4594173;19;19923;-50
2023/08/23 01:22:14;;;;;;;;;;;16.30;99.90;;;;;;4592903;19;19935;-50
2023/08/23 01:23:47;;;;;;;;;;;16.40;99.90;;;;;;4592485;19;20299;-51
2023/08/23 01:25:21;;;;;;;;;;;16.40;99.90;;;;;;4593839;19;19981;-50
2023/08/23 01:26:56;;;;;;;;;;;16.40;99.90;;;;;;4594096;19;19970;-52
2023/08/23 01:28:29;;;;;;;;;;;16.40;99.90;;;;;;4594050;19;19926;-52
2023/08/23 01:30:04;;;;;;;;;;;16.40;99.90;;;;;;4594013;19;19914;-51
2023/08/23 01:31:39;;;;;;;;;;;16.30;99.90;;;;;;4593955;19;19935;-50
2023/08/23 01:33:16;;;;;;;;;;;16.30;99.90;;;;;;4593983;19;19915;-52
2023/08/23 01:34:52;;;;;;;;;;;16.30;99.90;;;;;;4592984;19;19915;-51
2023/08/23 01:36:28;;;;;;;;;;;16.30;99.90;;;;;;4592681;19;19922;-51
2023/08/23 01:38:01;;;;;;;;;;;16.30;99.90;;;;;;4593323;19;20205;-50
2023/08/23 01:39:35;;;;;;;;;;;16.30;99.90;;;;;;4593808;19;20211;-52
2023/08/23 01:41:10;;;;;;;;;;;16.30;99.90;;;;;;4593740;19;19915;-51
2023/08/23 01:42:43;;;;;;;;;;;16.30;99.90;;;;;;4593812;19;19957;-51
2023/08/23 01:44:17;;;;;;;;;;;16.30;99.90;;;;;;4592934;19;19918;-51
2023/08/23 01:45:51;;;;;;;;;;;16.30;99.90;;;;;;4593742;19;20307;-51
2023/08/23 01:47:25;;;;;;;;;;;16.30;99.90;;;;;;4593699;19;19917;-51
2023/08/23 01:48:58;;;;;;;;;;;16.30;99.90;;;;;;4593632;19;19911;-52
2023/08/23 01:50:33;;;;;;;;;;;16.30;99.90;;;;;;4593663;19;19915;-51
2023/08/23 01:52:06;;;;;;;;;;;16.20;99.90;;;;;;4593538;19;19983;-52
2023/08/23 01:53:39;;;;;;;;;;;16.20;99.90;;;;;;4593294;19;19922;-51
2023/08/23 01:55:17;;;;;;;;;;;16.20;99.90;;;;;;4592970;19;19944;-51
2023/08/23 01:56:52;;;;;;;;;;;16.20;99.90;;;;;;4591986;19;19911;-52
2023/08/23 01:58:25;;;;;;;;;;;16.10;99.90;;;;;;4592022;19;19915;-51
2023/08/23 02:00:00;;;;;;;;;;;16.10;99.90;;;;;;4592908;19;19918;-51
2023/08/23 02:01:34;;;;;;;;;;;16.10;99.90;;;;;;4593101;19;19919;-50
2023/08/23 02:03:08;;;;;;;;;;;16.10;99.90;;;;;;4591607;19;20316;-52
2023/08/23 02:04:44;;;;;;;;;;;16.10;99.90;;;;;;4592209;19;19919;-51
2023/08/23 02:06:17;;;;;;;;;;;16.10;99.90;;;;;;4593286;19;19921;-51
2023/08/23 02:07:51;;;;;;;;;;;16.10;99.90;;;;;;4593280;19;19928;-51
2023/08/23 02:09:26;;;;;;;;;;;16.10;99.90;;;;;;4593238;19;20243;-51
2023/08/23 02:10:59;;;;;;;;;;;16.10;99.90;;;;;;4593239;19;19919;-51
2023/08/23 02:12:33;;;;;;;;;;;16.10;99.90;;;;;;4593221;19;19915;-51
2023/08/23 02:14:08;;;;;;;;;;;16.10;99.90;;;;;;4592767;19;20219;-51
2023/08/23 02:15:43;;;;;;;;;;;16.00;99.90;;;;;;4593185;19;19919;-50
2023/08/23 02:17:17;;;;;;;;;;;16.00;99.90;;;;;;4593131;19;20289;-52
2023/08/23 02:18:52;;;;;;;;;;;16.00;99.90;;;;;;4592363;19;20219;-51
2023/08/23 02:20:25;;;;;;;;;;;16.00;99.90;;;;;;4591447;19;19915;-51
2023/08/23 02:21:58;;;;;;;;;;;16.00;99.90;;;;;;4593045;19;19929;-54
2023/08/23 02:23:34;;;;;;;;;;;16.00;99.90;;;;;;4592979;19;20321;-52
2023/08/23 02:25:07;;;;;;;;;;;16.00;99.90;;;;;;4591928;19;19926;-53
2023/08/23 02:26:41;;;;;;;;;;;15.90;99.90;;;;;;4592931;19;19923;-52
2023/08/23 02:28:16;;;;;;;;;;;15.90;99.90;;;;;;4592889;19;20292;-52
2023/08/23 02:29:49;;;;;;;;;;;15.90;99.90;;;;;;4592832;19;19915;-50
2023/08/23 02:31:22;;;;;;;;;;;15.90;99.90;;;;;;4592906;19;20300;-54
2023/08/23 02:32:57;;;;;;;;;;;15.90;99.90;;;;;;4592824;19;19928;-51
2023/08/23 02:34:30;;;;;;;;;;;15.90;99.90;;;;;;4592137;19;19919;-52
2023/08/23 02:36:03;;;;;;;;;;;15.90;99.90;;;;;;4592740;19;20332;-53
2023/08/23 02:37:39;;;;;;;;;;;15.90;99.90;;;;;;4592763;19;19915;-52
2023/08/23 02:39:14;;;;;;;;;;;15.90;99.90;;;;;;4591780;19;19928;-52
2023/08/23 02:40:48;;;;;;;;;;;15.90;99.90;;;;;;4592677;19;20015;-54
2023/08/23 02:42:22;;;;;;;;;;;15.90;99.90;;;;;;4592655;19;19927;-53
2023/08/23 02:43:56;;;;;;;;;;;15.90;99.90;;;;;;4592421;19;19940;-54
2023/08/23 02:45:30;;;;;;;;;;;15.90;99.90;;;;;;4591311;19;20224;-52
2023/08/23 02:47:05;;;;;;;;;;;15.90;99.90;;;;;;4592592;19;19922;-52
2023/08/23 02:48:38;;;;;;;;;;;15.90;99.90;;;;;;4592526;19;19919;-52
2023/08/23 02:50:11;;;;;;;;;;;15.90;99.90;;;;;;4592559;19;19918;-51
2023/08/23 02:51:46;;;;;;;;;;;15.90;99.90;;;;;;4592507;19;19923;-52
2023/08/23 02:53:20;;;;;;;;;;;15.90;99.90;;;;;;4592480;19;19919;-54
2023/08/23 02:54:53;;;;;;;;;;;15.90;99.90;;;;;;4591506;19;19918;-51
2023/08/23 02:56:28;;;;;;;;;;;15.90;99.90;;;;;;4592417;19;19926;-53
2023/08/23 02:58:02;;;;;;;;;;;15.90;99.90;;;;;;4592266;19;19915;-53
2023/08/23 02:59:35;;;;;;;;;;;15.80;99.90;;;;;;4592480;19;19918;-52
2023/08/23 03:01:11;;;;;;;;;;;15.90;99.90;;;;;;4592319;19;19914;-52
2023/08/23 03:02:45;;;;;;;;;;;15.90;99.90;;;;;;4592653;19;19915;-52
2023/08/23 03:04:18;;;;;;;;;;;15.90;99.90;;;;;;4591699;19;19935;-52
2023/08/23 03:05:58;;;;;;;;;;;15.90;99.90;;;;;;4592354;19;19919;-54
2023/08/23 03:07:32;;;;;;;;;;;15.90;99.90;;;;;;4592267;19;19915;-52
2023/08/23 03:09:05;;;;;;;;;;;15.90;99.90;;;;;;4592243;19;19993;-53
2023/08/23 03:10:39;;;;;;;;;;;15.80;99.90;;;;;;4592211;19;19922;-53
2023/08/23 03:12:12;;;;;;;;;;;15.80;99.90;;;;;;4592191;19;19922;-52
2023/08/23 03:13:45;;;;;;;;;;;15.80;99.90;;;;;;4591958;19;19919;-51
2023/08/23 03:15:20;;;;;;;;;;;15.80;99.90;;;;;;4592106;19;20296;-53
2023/08/23 03:16:55;;;;;;;;;;;15.80;99.90;;;;;;4592122;19;19930;-54
2023/08/23 03:18:29;;;;;;;;;;;15.80;99.90;;;;;;4591585;19;19915;-52
2023/08/23 03:20:05;;;;;;;;;;;15.80;99.90;;;;;;4592159;19;19915;-53
2023/08/23 03:21:39;;;;;;;;;;;15.70;99.90;;;;;;4592043;19;20313;-53
2023/08/23 03:23:12;;;;;;;;;;;15.70;99.90;;;;;;4592003;19;20307;-53
2023/08/23 03:24:47;;;;;;;;;;;15.70;99.90;;;;;;4590915;19;19931;-52
2023/08/23 03:26:20;;;;;;;;;;;15.70;99.90;;;;;;4591913;19;19942;-53
2023/08/23 03:27:54;;;;;;;;;;;15.70;99.90;;;;;;4591914;19;19974;-54
2023/08/23 03:29:28;;;;;;;;;;;15.60;99.90;;;;;;4591901;19;19930;-53
2023/08/23 03:31:02;;;;;;;;;;;15.60;99.90;;;;;;4592905;19;19987;-53
2023/08/23 03:32:35;;;;;;;;;;;15.60;99.90;;;;;;4596497;19;19970;-51
2023/08/23 03:34:10;;;;;;;;;;;15.60;99.90;;;;;;4595781;19;19915;-53
2023/08/23 03:35:53;;;;;;;;;;;15.60;99.90;;;;;;4596490;19;19907;-53
2023/08/23 03:37:26;;;;;;;;;;;15.60;99.90;;;;;;4595090;19;19919;-50
2023/08/23 03:39:01;;;;;;;;;;;15.60;99.90;;;;;;4594761;19;19918;-52
2023/08/23 03:40:35;;;;;;;;;;;15.60;99.90;;;;;;4596037;19;19931;-52
2023/08/23 03:42:08;;;;;;;;;;;15.60;99.90;;;;;;4595629;19;19911;-51
2023/08/23 03:43:43;;;;;;;;;;;15.60;99.90;;;;;;4595350;19;20059;-51
2023/08/23 03:45:17;;;;;;;;;;;15.60;99.90;;;;;;4594329;19;19922;-52
2023/08/23 03:46:51;;;;;;;;;;;15.60;99.90;;;;;;4596158;19;19933;-52
2023/08/23 03:48:26;;;;;;;;;;;15.60;99.90;;;;;;4596127;19;20343;-52
2023/08/23 03:50:00;;;;;;;;;;;15.60;99.90;;;;;;4596130;19;19918;-51
2023/08/23 03:51:34;;;;;;;;;;;15.70;99.90;;;;;;4596066;19;19918;-52
2023/08/23 03:53:08;;;;;;;;;;;15.70;99.90;;;;;;4596004;19;19919;-50
2023/08/23 03:54:42;;;;;;;;;;;15.60;99.90;;;;;;4594846;19;19940;-51
2023/08/23 03:56:16;;;;;;;;;;;15.60;99.90;;;;;;4595958;19;19926;-51
2023/08/23 03:57:51;;;;;;;;;;;15.60;99.90;;;;;;4595922;19;19979;-50
2023/08/23 03:59:24;;;;;;;;;;;15.60;99.90;;;;;;4594366;19;19921;-51
2023/08/23 04:00:57;;;;;;;;;;;15.60;99.90;;;;;;4595844;19;20289;-51
2023/08/23 04:02:32;;;;;;;;;;;15.60;99.90;;;;;;4595832;19;19918;-50
2023/08/23 04:04:05;;;;;;;;;;;15.60;99.90;;;;;;4595292;19;19919;-52
2023/08/23 04:05:41;;;;;;;;;;;15.60;99.90;;;;;;4595730;19;19919;-52
2023/08/23 04:07:16;;;;;;;;;;;15.70;99.90;;;;;;4595790;19;19934;-53
2023/08/23 04:08:49;;;;;;;;;;;15.70;99.90;;;;;;4595777;19;19949;-52
2023/08/23 04:10:24;;;;;;;;;;;15.70;99.90;;;;;;4595705;19;19914;-54
2023/08/23 04:11:58;;;;;;;;;;;15.70;99.90;;;;;;4595675;19;19936;-52
2023/08/23 04:13:31;;;;;;;;;;;15.70;99.90;;;;;;4595677;19;20225;-58
2023/08/23 04:15:06;;;;;;;;;;;15.70;99.90;;;;;;4594077;19;19919;-52
2023/08/23 04:16:40;;;;;;;;;;;15.70;99.90;;;;;;4595576;19;19919;-52
2023/08/23 04:18:13;;;;;;;;;;;15.70;99.90;;;;;;4595250;19;20215;-51
2023/08/23 04:19:47;;;;;;;;;;;15.70;99.90;;;;;;4595535;19;19919;-51
2023/08/23 04:21:24;;;;;;;;;;;15.70;99.90;;;;;;4595469;19;19919;-60
2023/08/23 04:22:59;;;;;;;;;;;15.80;99.90;;;;;;4595499;19;19911;-60
2023/08/23 04:24:34;;;;;;;;;;;15.70;99.90;;;;;;4594449;19;19922;-60
2023/08/23 04:26:10;;;;;;;;;;;15.80;99.90;;;;;;4595505;19;19911;-60
2023/08/23 04:27:54;;;;;;;;;;;15.80;99.90;;;;;;4594832;19;19911;-60
2023/08/23 04:29:48;;;;;;;;;;;15.80;99.90;;;;;;4593476;19;19927;-60
2023/08/23 04:31:39;;;;;;;;;;;15.80;99.90;;;;;;4593896;19;19919;-60
2023/08/23 04:33:22;;;;;;;;;;;15.80;99.90;;;;;;4593149;19;19938;-60
2023/08/23 04:35:05;;;;;;;;;;;15.70;99.90;;;;;;4593167;19;20316;-60
2023/08/23 04:36:59;;;;;;;;;;;15.80;99.90;;;;;;4592483;19;19915;-60
2023/08/23 04:38:48;;;;;;;;;;;15.80;99.90;;;;;;4593103;19;19911;-60
2023/08/23 04:41:10;;;;;;;;;;;15.80;99.90;;;;;;4593775;19;19915;-60
2023/08/23 04:43:19;;;;;;;;;;;15.80;99.90;;;;;;4591846;19;20342;-60
2023/08/23 04:45:12;;;;;;;;;;;15.80;99.90;;;;;;4592890;19;19979;-60
2023/08/23 04:47:03;;;;;;;;;;;15.80;99.90;;;;;;4593641;19;20263;-60
2023/08/23 04:49:00;;;;;;;;;;;15.80;99.90;;;;;;4594815;19;19919;-60
2023/08/23 04:50:56;;;;;;;;;;;15.90;99.90;;;;;;4593533;19;20331;-65
2023/08/23 04:52:50;;;;;;;;;;;16.00;99.90;;;;;;4591944;19;19915;-66
2023/08/23 04:54:39;;;;;;;;;;;15.90;99.90;;;;;;4593857;19;20289;-66
2023/08/23 04:56:19;;;;;;;;;;;16.00;99.90;;;;;;4594708;19;19931;-66
2023/08/23 04:58:08;;;;;;;;;;;16.10;99.90;;;;;;4593200;19;20272;-66
2023/08/23 04:59:54;;;;;;;;;;;16.10;99.90;;;;;;4593211;19;19914;-66
2023/08/23 05:01:33;;;;;;;;;;;16.10;99.90;;;;;;4593132;19;19923;-65
2023/08/23 05:03:21;;;;;;;;;;;16.20;99.90;;;;;;4592924;19;19940;-66
2023/08/23 05:05:05;;;;;;;;;;;16.20;99.90;;;;;;4593426;19;20284;-66
2023/08/23 05:07:04;;;;;;;;;;;16.30;99.90;;;;;;4593090;19;19921;-66
2023/08/23 05:09:01;;;;;;;;;;;16.30;99.90;;;;;;4594362;19;20306;-65
2023/08/23 05:10:55;;;;;;;;;;;16.40;99.90;;;;;;4591818;19;19915;-65
2023/08/23 05:12:51;;;;;;;;;;;16.40;99.90;;;;;;4593080;19;20327;-66
2023/08/23 05:14:52;;;;;;;;;;;16.50;99.90;;;;;;4592085;19;19915;-66
2023/08/23 05:16:36;;;;;;;;;;;16.50;99.90;;;;;;4594221;19;20296;-64
2023/08/23 05:18:20;;;;;;;;;;;16.50;99.90;;;;;;4593791;19;20244;-62
2023/08/23 05:20:08;;;;;;;;;;;16.60;99.90;;;;;;4592525;19;19915;-63
2023/08/23 05:21:55;;;;;;;;;;;16.60;99.90;;;;;;4592617;19;19918;-63
2023/08/23 05:23:48;;;;;;;;;;;16.70;99.90;;;;;;4591280;19;19911;-63
2023/08/23 05:25:44;;;;;;;;;;;16.70;99.90;;;;;;4591385;19;19958;-63
2023/08/23 05:27:43;;;;;;;;;;;16.70;99.90;;;;;;4593983;19;20217;-63
2023/08/23 05:29:49;;;;;;;;;;;16.70;99.90;;;;;;4594229;19;19939;-63
2023/08/23 05:31:40;;;;;;;;;;;16.80;99.90;;;;;;4593991;19;20233;-63
2023/08/23 05:33:27;;;;;;;;;;;17.30;99.90;;;;;;4592566;19;19915;-63
2023/08/23 05:35:10;;;;;;;;;;;17.90;99.90;;;;;;4591926;19;19944;-63
2023/08/23 05:37:07;;;;;;;;;;;18.30;99.90;;;;;;4591270;19;19925;-63
2023/08/23 05:39:07;;;;;;;;;;;18.80;99.90;;;;;;4592468;19;20364;-63
2023/08/23 05:41:10;;;;;;;;;;;19.10;99.90;;;;;;4594022;19;19926;-63
2023/08/23 05:43:20;;;;;;;;;;;19.40;99.90;;;;;;4592145;19;19915;-64
2023/08/23 05:45:22;;;;;;;;;;;19.70;99.90;;;;;;4590836;19;19923;-63
2023/08/23 05:47:09;;;;;;;;;;;19.90;99.90;;;;;;4592673;19;19918;-64
2023/08/23 05:48:56;;;;;;;;;;;20.00;99.90;;;;;;4591342;19;19911;-63
2023/08/23 05:50:38;;;;;;;;;;;20.10;99.90;;;;;;4592614;19;19970;-63
2023/08/23 05:52:46;;;;;;;;;;;20.30;99.90;;;;;;4592894;19;20215;-63
2023/08/23 05:54:24;;;;;;;;;;;20.40;99.90;;;;;;4590646;19;19926;-63
2023/08/23 05:56:14;;;;;;;;;;;20.40;99.90;;;;;;4591076;19;20303;-63
2023/08/23 05:58:22;;;;;;;;;;;20.50;99.90;;;;;;4592321;19;19922;-61
2023/08/23 06:00:12;;;;;;;;;;;20.60;99.90;;;;;;4592436;19;20327;-60
2023/08/23 06:01:57;;;;;;;;;;;20.70;99.90;;;;;;4591242;19;19911;-60
2023/08/23 06:03:51;;;;;;;;;;;20.70;99.90;;;;;;4589874;19;20276;-61
2023/08/23 06:05:49;;;;;;;;;;;20.80;99.90;;;;;;4591240;19;19932;-60
2023/08/23 06:07:38;;;;;;;;;;;20.80;99.90;;;;;;4592501;19;19911;-60
2023/08/23 06:09:35;;;;;;;;;;;20.90;99.90;;;;;;4590848;19;19944;-60
2023/08/23 06:11:23;;;;;;;;;;;20.90;99.90;;;;;;4592272;19;19918;-61
2023/08/23 06:13:10;;;;;;;;;;;21.00;99.90;;;;;;4591349;19;19944;-60
2023/08/23 06:15:04;;;;;;;;;;;21.00;99.90;;;;;;4590061;19;20367;-60
2023/08/23 06:17:06;;;;;;;;;;;21.00;99.90;;;;;;4591026;19;19915;-60
2023/08/23 06:19:07;;;;;;;;;;;21.10;99.90;;;;;;4590375;19;19932;-60
2023/08/23 06:20:59;;;;;;;;;;;21.10;99.90;;;;;;4592223;19;19927;-60
2023/08/23 06:22:56;;;;;;;;;;;21.20;99.90;;;;;;4591209;19;19907;-60
2023/08/23 06:24:50;;;;;;;;;;;21.30;99.90;;;;;;4591583;19;19915;-60
2023/08/23 06:26:29;;;;;;;;;;;21.30;99.90;;;;;;4592267;19;19915;-60
2023/08/23 06:28:24;;;;;;;;;;;21.40;99.90;;;;;;4590798;19;19986;-60
2023/08/23 06:30:22;;;;;;;;;;;21.40;99.90;;;;;;4590922;19;19918;-60
2023/08/23 06:32:25;;;;;;;;;;;21.50;99.90;;;;;;4589951;19;20272;-60
2023/08/23 06:34:20;;;;;;;;;;;21.50;99.90;;;;;;4591698;19;19915;-60
2023/08/23 06:36:12;;;;;;;;;;;21.60;99.90;;;;;;4591924;19;19926;-60
2023/08/23 06:38:15;;;;;;;;;;;21.60;99.90;;;;;;4591771;19;19921;-60
2023/08/23 06:40:21;;;;;;;;;;;21.70;99.90;;;;;;4590589;19;19992;-60
2023/08/23 06:42:22;;;;;;;;;;;21.70;99.90;;;;;;4591862;19;19907;-59
2023/08/23 06:44:30;;;;;;;;;;;21.80;99.90;;;;;;4590316;19;19923;-60
2023/08/23 06:46:29;;;;;;;;;;;21.80;99.90;;;;;;4590419;19;19914;-60
2023/08/23 06:48:25;;;;;;;;;;;22.00;99.90;;;;;;4589247;19;19922;-60
2023/08/23 06:50:30;;;;;;;;;;;22.00;99.90;;;;;;4591669;19;19915;-60
2023/08/23 06:52:28;;;;;;;;;;;22.00;99.90;;;;;;4591071;19;19967;-60
2023/08/23 06:54:22;;;;;;;;;;;21.90;99.90;;;;;;4590888;19;19926;-60
2023/08/23 06:56:14;;;;;;;;;;;20.80;99.90;;;;;;4590954;19;19914;-59
2023/08/23 06:57:55;;;;;;;;;;;19.40;99.90;;;;;;4591075;19;19940;-59
2023/08/23 06:59:41;;;;;;;;;;;18.90;99.90;;;;;;4590982;19;19919;-59
2023/08/23 07:01:47;;;;;;;;;;;18.80;99.90;;;;;;4590665;19;19990;-59
2023/08/23 07:03:39;;;;;;;;;;;18.70;99.90;;;;;;4590791;19;20264;-59
2023/08/23 07:05:40;;;;;;;;;;;18.70;99.90;;;;;;4590850;19;19911;-59
2023/08/23 07:07:45;;;;;;;;;;;18.70;99.90;;;;;;4594762;19;19931;-59
2023/08/23 07:09:45;;;;;;;;;;;18.80;99.90;;;;;;4594632;19;19922;-59
2023/08/23 07:11:46;;;;;;;;;;;18.80;99.90;;;;;;4594802;19;19923;-59
2023/08/23 07:13:57;;;;;;;;;;;18.80;99.90;;;;;;4594093;19;19915;-59
2023/08/23 07:16:07;;;;;;;;;;;18.90;99.90;;;;;;4594342;19;19930;-59
2023/08/23 07:18:00;;;;;;;;;;;18.90;99.90;;;;;;4594877;19;19919;-59
2023/08/23 07:20:06;;;;;;;;;;;19.00;99.90;;;;;;4595277;19;19919;-59
2023/08/23 07:22:03;;;;;;;;;;;19.00;99.90;;;;;;4596766;19;20197;-59
2023/08/23 07:23:54;;;;;;;;;;;19.10;99.90;;;;;;4594221;19;20359;-60
2023/08/23 07:25:48;;;;;;;;;;;19.10;99.90;;;;;;4596445;19;19918;-58
2023/08/23 07:27:34;;;;;;;;;;;19.10;99.90;;;;;;4596501;19;19919;-58
2023/08/23 07:29:35;;;;;;;;;;;19.20;99.90;;;;;;4596250;19;19945;-58
2023/08/23 07:31:43;;;;;;;;;;;19.20;99.90;;;;;;4593850;19;19919;-58
2023/08/23 07:33:43;;;;;;;;;;;19.30;99.90;;;;;;4596233;19;19926;-57
2023/08/23 07:35:28;;;;;;;;;;;19.40;99.90;;;;;;4594877;19;20313;-58
2023/08/23 07:37:23;;;;;;;;;;;19.40;99.90;;;;;;4594678;19;19915;-57
2023/08/23 07:39:32;;;;;;;;;;;19.40;99.90;;;;;;4593024;19;19935;-60
2023/08/23 07:41:47;;;;;;;;;;;19.40;99.90;;;;;;4594436;19;19925;-60
2023/08/23 07:43:53;;;;;;;;;;;19.60;99.90;;;;;;4593996;19;19914;-60
2023/08/23 07:46:10;;;;;;;;;;;19.60;99.90;;;;;;4594622;19;20232;-60
2023/08/23 07:48:28;;;;;;;;;;;19.60;99.90;;;;;;4595961;19;19915;-61
2023/08/23 07:50:30;;;;;;;;;;;19.70;99.90;;;;;;4592512;19;20297;-59
2023/08/23 07:52:24;;;;;;;;;;;19.70;99.90;;;;;;4594365;19;19915;-59
2023/08/23 07:54:17;;;;;;;;;;;19.70;99.90;;;;;;4595465;19;19913;-59
2023/08/23 07:56:13;;;;;;;;;;;19.80;99.90;;;;;;4594611;19;19925;-59
2023/08/23 07:58:20;;;;;;;;;;;19.70;99.90;;;;;;4594454;19;19919;-59
2023/08/23 08:00:31;;;;;;;;;;;19.70;99.90;;;;;;4594322;19;19922;-59
2023/08/23 08:02:30;;;;;;;;;;;19.70;99.90;;;;;;4594037;19;19929;-59
2023/08/23 08:04:22;;;;;;;;;;;19.80;99.90;;;;;;4595012;19;19929;-59
2023/08/23 08:06:20;;;;;;;;;;;19.80;99.90;;;;;;4595835;19;20024;-59
2023/08/23 08:08:42;;;;;;;;;;;19.80;99.90;;;;;;4595307;19;19939;-59
2023/08/23 08:10:54;;;;;;;;;;;19.90;99.90;;;;;;4592510;19;19974;-59
2023/08/23 08:12:58;;;;;;;;;;;20.00;99.90;;;;;;4593970;19;19911;-60
2023/08/23 08:14:53;;;;;;;;;;;20.00;99.90;;;;;;4592045;19;19929;-59
2023/08/23 08:16:51;;;;;;;;;;;20.10;99.90;;;;;;4595576;19;19925;-59
2023/08/23 08:18:40;;;;;;;;;;;20.10;99.90;;;;;;4593367;19;20234;-59
2023/08/23 08:20:26;;;;;;;;;;;20.10;99.90;;;;;;4595070;19;19922;-59
2023/08/23 08:22:30;;;;;;;;;;;20.10;99.90;;;;;;4593130;19;19982;-60
2023/08/23 08:24:43;;;;;;;;;;;20.10;99.90;;;;;;4592964;19;19914;-59
2023/08/23 08:26:50;;;;;;;;;;;20.20;99.90;;;;;;4595388;19;19915;-59
2023/08/23 08:28:51;;;;;;;;;;;20.20;99.90;;;;;;4595140;19;19918;-59
2023/08/23 08:30:59;;;;;;;;;;;20.30;99.90;;;;;;4593796;19;19925;-59
2023/08/23 08:33:09;;;;;;;;;;;20.30;99.90;;;;;;4595181;19;19919;-59
2023/08/23 08:35:28;;;;;;;;;;;20.40;99.90;;;;;;4593367;19;20002;-59
2023/08/23 08:37:43;;;;;;;;;;;20.40;99.90;;;;;;4593377;19;19910;-59
2023/08/23 08:39:52;;;;;;;;;;;20.40;99.90;;;;;;4593068;19;20288;-60
2023/08/23 08:41:59;;;;;;;;;;;20.40;99.90;;;;;;4592674;19;19937;-57
2023/08/23 08:44:12;;;;;;;;;;;20.50;99.90;;;;;;4592773;19;20251;-58
2023/08/23 08:46:19;;;;;;;;;;;20.50;99.90;;;;;;4591483;19;20212;-58
2023/08/23 08:48:33;;;;;;;;;;;20.60;99.90;;;;;;4593032;19;19932;-58
2023/08/23 08:50:38;;;;;;;;;;;20.60;99.90;;;;;;4593353;19;19911;-58
2023/08/23 08:52:53;;;;;;;;;;;20.70;99.90;;;;;;4594689;19;19911;-58
2023/08/23 08:55:29;;;;;;;;;;;20.70;99.90;;;;;;4591854;19;19915;-57
2023/08/23 08:57:42;;;;;;;;;;;20.60;99.90;;;;;;4591637;19;20204;-57
2023/08/23 08:59:55;;;;;;;;;;;20.60;99.90;;;;;;4592897;19;19922;-58
2023/08/23 09:02:01;;;;;;;;;;;20.70;99.90;;;;;;4594450;19;19922;-59
2023/08/23 09:03:50;;;;;;;;;;;20.80;99.90;;;;;;4594573;19;19915;-60
2023/08/23 09:05:38;;;;;;;;;;;20.80;99.90;;;;;;4593272;19;19919;-59
2023/08/23 09:07:34;;;;;;;;;;;20.90;99.90;;;;;;4594026;19;20317;-60
2023/08/23 09:09:33;;;;;;;;;;;20.90;99.90;;;;;;4592907;19;19930;-59
2023/08/23 09:11:39;;;;;;;;;;;20.90;99.90;;;;;;4593118;19;19914;-59
2023/08/23 09:13:36;;;;;;;;;;;20.90;99.90;;;;;;4592949;19;20261;-59
2023/08/23 09:15:29;;;;;;;;;;;21.00;99.90;;;;;;4594337;19;19932;-59
2023/08/23 09:17:13;;;;;;;;;;;21.00;99.90;;;;;;4593114;19;19911;-59
2023/08/23 09:19:03;;;;;;;;;;;21.10;99.90;;;;;;4592584;19;19911;-59
2023/08/23 09:20:51;;;;;;;;;;;21.10;99.90;;;;;;4592931;19;19934;-59
2023/08/23 09:22:38;;;;;;;;;;;21.10;99.90;;;;;;4594080;19;19918;-59
2023/08/23 09:24:35;;;;;;;;;;;21.10;99.90;;;;;;4591471;19;19911;-59
2023/08/23 09:26:21;;;;;;;;;;;21.10;99.90;;;;;;4593199;19;20228;-59
2023/08/23 09:28:11;;;;;;;;;;;21.20;99.90;;;;;;4593427;19;19997;-59
2023/08/23 09:30:27;;;;;;;;;;;21.20;99.90;;;;;;4592970;19;19915;-59
2023/08/23 09:32:28;;;;;;;;;;;21.20;99.90;;;;;;4592455;19;19978;-59
2023/08/23 09:34:19;;;;;;;;;;;21.20;99.90;;;;;;4591282;19;19918;-59
2023/08/23 09:36:13;;;;;;;;;;;21.30;99.90;;;;;;4592399;19;19923;-59
2023/08/23 09:38:14;;;;;;;;;;;21.30;99.90;;;;;;4592259;19;20335;-60
2023/08/23 09:40:26;;;;;;;;;;;21.30;99.90;;;;;;4592658;19;19915;-59
2023/08/23 09:42:17;;;;;;;;;;;21.40;99.90;;;;;;4593833;19;19925;-59
2023/08/23 09:44:23;;;;;;;;;;;21.50;99.90;;;;;;4592382;19;20302;-59
2023/08/23 09:46:23;;;;;;;;;;;21.50;99.90;;;;;;4592372;19;20295;-59
2023/08/23 09:48:12;;;;;;;;;;;21.60;99.90;;;;;;4592325;19;19914;-59
2023/08/23 09:50:15;;;;;;;;;;;21.60;99.90;;;;;;4592574;19;19945;-59
2023/08/23 09:52:23;;;;;;;;;;;21.60;99.90;;;;;;4592117;19;19911;-59
2023/08/23 09:54:51;;;;;;;;;;;21.70;99.90;;;;;;4593065;19;20209;-59
2023/08/23 09:56:49;;;;;;;;;;;21.70;99.90;;;;;;4591815;19;19922;-60
2023/08/23 09:58:24;;;;;;;;;;;21.80;99.90;;;;;;4592359;19;19918;-60
2023/08/23 09:59:59;;;;;;;;;;;21.80;99.90;;;;;;4593079;19;19915;-59
2023/08/23 10:01:32;;;;;;;;;;;21.80;99.90;;;;;;4593303;19;20226;-60
2023/08/23 10:03:07;;;;;;;;;;;21.90;99.90;;;;;;4593342;19;20299;-59
2023/08/23 10:04:41;;;;;;;;;;;22.00;99.90;;;;;;4591172;19;19915;-60
2023/08/23 10:06:15;;;;;;;;;;;22.00;99.90;;;;;;4593108;19;20222;-60
2023/08/23 10:07:50;;;;;;;;;;;22.00;99.90;;;;;;4593270;19;19930;-60
2023/08/23 10:09:24;;;;;;;;;;;21.90;99.90;;;;;;4593196;19;19949;-60
2023/08/23 10:10:57;;;;;;;;;;;22.00;99.90;;;;;;4593098;19;20295;-60
2023/08/23 10:12:36;;;;;;;;;;;22.00;99.90;;;;;;4592954;19;19922;-60
2023/08/23 10:14:09;;;;;;;;;;;22.00;99.90;;;;;;4592781;19;19915;-60
2023/08/23 10:15:43;;;;;;;;;;;22.10;99.90;;;;;;4591745;19;20315;-60